메인 페이지
METAR-TAF:

METAR-TAF

공항 :

알마티, 카자흐스탄

알마티 국제공항

위도: 43-14N, 경도: 076-56E, 고도: 847m

현재 날씨관측

예보는 36분 전, 00:30시(UTC)에 발표되었습니다.
동남동4kt풍과 남동풍을 오가는
온도 -7°C
습도 100%
기압 1028 hPa
시정: 2700m
고도 500ft 상공 흐림
박무

METAR: UAAA 180030Z 11002MPS 080V140 2700 BR OVC005 M07/M07 Q1028 R23R/3///47 R23L/3///37 NOSIG RMK QBB160

시각: 07:06 (01:06 UTC)

예보

예보는 2 시간 6분 전, 23:00시(UTC)에 발표되었습니다.
예보 대상 시간: 18일 00시부터 18일 24시까지 (UTC)
남남동10kt
시정: 0800m
고도 400ft 상공 구름 많음
고도 1000ft 상공 흐림
어는 안개
일시적
18일 00시부터 18일 06시까지 (UTC)
북서10kt
시정: 0200m
고도 100ft 상공
약한눈, 어는 안개
전환 중
18일 07시부터 18일 08시까지 (UTC)
10kt
시정: 2500m
고도 1000ft 상공 구름 많음
고도 10000ft 상공 흐림
박무, 연기
일시적
18일 12시부터 18일 24시까지 (UTC)
남남동10kt
시정: 0300m
고도 200ft 상공
약한눈, 어는 안개

TAF: UAAA 172300Z 1800/1824 16005MPS 0800 FZFG BKN004 OVC010 TXM04/1809Z TNM10/1801Z TEMPO 1800/1806 32005MPS 0200 -SN FZFG VV001 BECMG 1807/1808 26005MPS 2500 BR FU BKN010 OVC100 TEMPO 1812/1824 16005MPS 0300 -SN FZFG VV002

4,000개 이상의 공항 관측 자료 및 예보 (METAR 및 TAF 보고).

지도상에서 검색 가능한 기상관측소가 노란 점과 빨간 점으로 표시되어 있습니다.

기상관측소 명을 보려면 표시 위로 마우스를 이동하세요.

날씨 관측과 예보를 보려면 클릭하세요.

지도 변경 : 확대하려면 엑스 표시가 있는 녹색 버튼, 축소하려면 빼기 표시가 있는 녹색 버튼, 다음 페이지의 지도를 보려면 녹색 화살표를 클릭하세요.


METAR-TAF: